Phoenix, Arizona
Traffic Map
Current Weather Conditions
Phoenix, Arizona
Broken Clouds Light Rain
Broken Clouds
23°
Feels Like: 23°
Wind Chill: 23° Ceiling: 10000
Heat Index: 23° Visibility: 10mi
Dew Point: 19° Wind: 10mph
Humidity: 79% Direction: 30° (NNE)
Pressure: 29.95in Gusts: 0mph
Raw Report DataKPHX 220551Z 03009KT 10SM -RA FEW070 BKN100 23/19 A2995 RMK AO2 RAE0458B45 SLP127 P0000 60019 T02280189 10322 20217 50014
Traffic Incident Summary
Active as of:
Severity:
Category:
InformationThere was an issue retrieving the traffic information for this location. Please try a different location or try again shortly.
Advertisements
Track Severe Weather on mobile